createdAt,value
2023-05-23T00:01:31.757Z,16.48
2023-05-23T00:03:37.840Z,15.65
2023-05-23T00:05:55.735Z,15.32
2023-05-23T00:08:01.550Z,14.93
2023-05-23T00:10:07.955Z,15.52
2023-05-23T00:12:19.333Z,16.38
2023-05-23T00:14:25.151Z,14.50
2023-05-23T00:16:32.749Z,16.20
2023-05-23T00:18:50.697Z,15.43
2023-05-23T00:20:59.761Z,15.38
2023-05-23T00:23:05.317Z,15.88
2023-05-23T00:25:14.097Z,17.30
2023-05-23T00:27:19.573Z,15.52
2023-05-23T00:29:29.024Z,16.88
2023-05-23T00:31:35.672Z,16.70
2023-05-23T00:33:41.467Z,17.00
2023-05-23T00:35:47.816Z,18.77
2023-05-23T00:37:58.618Z,17.23
2023-05-23T00:40:07.100Z,18.83
2023-05-23T00:42:13.610Z,18.00
2023-05-23T00:44:27.467Z,17.20
2023-05-23T00:46:35.336Z,16.67
2023-05-23T00:50:50.067Z,18.33
2023-05-23T00:52:58.402Z,17.20
2023-05-23T00:55:04.107Z,18.25
2023-05-23T00:57:25.306Z,18.05
2023-05-23T00:59:33.347Z,18.90
2023-05-23T01:01:40.477Z,19.30
2023-05-23T01:03:50.416Z,19.48
2023-05-23T01:06:01.372Z,19.35
2023-05-23T01:08:09.546Z,17.48
2023-05-23T01:10:16.861Z,19.10
2023-05-23T01:12:34.396Z,19.30
2023-05-23T01:14:51.090Z,17.27
2023-05-23T01:17:01.332Z,21.20
2023-05-23T01:19:26.459Z,27.80
2023-05-23T01:21:33.064Z,19.58
2023-05-23T01:24:21.527Z,19.55
2023-05-23T01:26:38.212Z,19.05
2023-05-23T01:28:50.721Z,17.40
2023-05-23T01:30:59.733Z,18.45
2023-05-23T01:33:07.780Z,19.50
2023-05-23T01:35:13.992Z,18.40
2023-05-23T01:37:25.147Z,16.20
2023-05-23T01:39:30.844Z,34.63
2023-05-23T01:41:49.397Z,21.38
2023-05-23T01:44:02.075Z,18.63
2023-05-23T01:46:20.896Z,16.48
2023-05-23T01:48:29.384Z,42.00
2023-05-23T01:50:38.430Z,44.53
2023-05-23T01:52:44.049Z,28.08
2023-05-23T01:54:50.967Z,31.60
2023-05-23T01:57:11.267Z,30.10
2023-05-23T01:59:23.385Z,13.85
2023-05-23T02:01:37.951Z,15.40
2023-05-23T02:03:43.486Z,13.35
2023-05-23T02:05:57.203Z,12.18
2023-05-23T02:08:04.205Z,15.00
2023-05-23T02:10:12.724Z,27.92
2023-05-23T02:12:18.506Z,27.67
2023-05-23T02:14:29.333Z,18.63
2023-05-23T02:16:37.683Z,18.70
2023-05-23T02:18:46.424Z,15.05
2023-05-23T02:20:53.450Z,35.22
2023-05-23T02:22:59.123Z,31.98
2023-05-23T02:25:16.748Z,20.05
2023-05-23T02:27:25.272Z,29.75
2023-05-23T02:29:34.342Z,18.85
2023-05-23T02:31:40.296Z,19.38
2023-05-23T02:33:45.827Z,26.05
2023-05-23T02:35:58.698Z,19.33
2023-05-23T02:38:06.608Z,19.55
2023-05-23T02:40:12.935Z,19.13
2023-05-23T02:42:27.425Z,18.40
2023-05-23T02:44:35.464Z,17.88
2023-05-23T02:46:41.154Z,16.77
2023-05-23T02:48:46.803Z,19.13
2023-05-23T02:50:56.703Z,17.27
2023-05-23T02:53:04.005Z,16.42
2023-05-23T02:55:10.659Z,16.63
2023-05-23T02:57:21.248Z,17.33
2023-05-23T02:59:37.766Z,17.45
2023-05-23T03:01:46.488Z,13.05
2023-05-23T03:03:52.585Z,17.98
2023-05-23T03:06:09.775Z,15.15
2023-05-23T03:08:15.383Z,15.55
2023-05-23T03:10:21.039Z,17.70
2023-05-23T03:12:26.627Z,16.73
2023-05-23T03:14:35.020Z,16.38
2023-05-23T03:16:40.822Z,19.10
2023-05-23T03:19:13.092Z,17.58
2023-05-23T03:21:19.052Z,17.73
2023-05-23T03:23:24.655Z,18.85
2023-05-23T03:25:30.275Z,18.52
2023-05-23T03:27:35.974Z,19.13
2023-05-23T03:29:56.763Z,17.35
2023-05-23T03:32:02.515Z,16.83
2023-05-23T03:34:09.645Z,20.42
2023-05-23T03:36:26.354Z,18.10
2023-05-23T03:38:38.534Z,17.52
2023-05-23T03:40:46.039Z,18.85
2023-05-23T03:43:08.897Z,18.40
2023-05-23T03:45:22.596Z,15.10
2023-05-23T03:47:43.786Z,17.35
2023-05-23T03:49:50.665Z,15.40
2023-05-23T03:51:56.442Z,21.55
2023-05-23T03:54:02.306Z,19.83
2023-05-23T03:56:13.682Z,17.73
2023-05-23T03:58:22.237Z,18.10
2023-05-23T04:00:36.871Z,18.27
2023-05-23T04:02:47.350Z,20.35
2023-05-23T04:04:57.439Z,17.85
2023-05-23T04:07:11.615Z,17.17
2023-05-23T04:09:22.420Z,18.83
2023-05-23T04:11:32.020Z,18.52
2023-05-23T04:13:38.599Z,19.45
2023-05-23T04:15:48.352Z,19.02
2023-05-23T04:17:56.737Z,18.25
2023-05-23T04:20:04.324Z,19.77
2023-05-23T04:22:13.314Z,21.17
2023-05-23T04:24:19.120Z,21.75
2023-05-23T04:26:29.329Z,23.15
2023-05-23T04:28:54.795Z,23.83
2023-05-23T04:31:22.479Z,23.05
2023-05-23T04:33:33.145Z,20.05
2023-05-23T04:35:42.901Z,21.00
2023-05-23T04:37:50.608Z,21.05
2023-05-23T04:40:00.516Z,20.40
2023-05-23T04:42:18.783Z,20.63
2023-05-23T04:44:50.264Z,19.77
2023-05-23T04:47:04.634Z,20.85
2023-05-23T04:49:44.005Z,19.15
2023-05-23T04:51:52.740Z,20.20
2023-05-23T04:54:25.520Z,17.10
2023-05-23T04:56:40.315Z,16.80
2023-05-23T04:58:47.003Z,17.42
2023-05-23T05:00:55.850Z,17.52
2023-05-23T05:03:04.114Z,17.42
2023-05-23T05:05:11.370Z,17.52
2023-05-23T05:07:28.829Z,16.60
2023-05-23T05:09:34.217Z,16.92
2023-05-23T05:11:39.901Z,16.75
2023-05-23T05:13:52.780Z,17.23
2023-05-23T05:15:59.033Z,15.82
2023-05-23T05:18:08.388Z,16.17
2023-05-23T05:20:15.463Z,17.08
2023-05-23T05:22:21.355Z,12.90
2023-05-23T05:24:29.180Z,15.02
2023-05-23T05:26:35.378Z,12.75
2023-05-23T05:28:41.386Z,14.27
2023-05-23T05:30:54.485Z,14.55
2023-05-23T05:33:04.644Z,13.88
2023-05-23T05:35:14.176Z,14.88
2023-05-23T05:37:44.622Z,14.38
2023-05-23T05:39:53.764Z,14.65
2023-05-23T05:42:01.460Z,13.85
2023-05-23T05:44:09.873Z,14.07
2023-05-23T05:46:26.122Z,13.98
2023-05-23T05:48:32.712Z,14.57
2023-05-23T05:50:45.716Z,13.95
2023-05-23T05:52:52.420Z,14.18
2023-05-23T05:54:57.927Z,13.95
2023-05-23T05:57:10.158Z,14.02
2023-05-23T05:59:20.159Z,13.40
2023-05-23T06:01:27.038Z,14.20
2023-05-23T06:03:33.058Z,13.27
2023-05-23T06:05:39.871Z,13.85
2023-05-23T06:07:49.485Z,13.77
2023-05-23T06:09:55.976Z,12.70
2023-05-23T06:12:07.995Z,14.15
2023-05-23T06:14:21.466Z,13.48
2023-05-23T06:16:33.216Z,13.07
2023-05-23T06:18:39.968Z,13.85
2023-05-23T06:20:45.412Z,12.40
2023-05-23T06:22:58.263Z,12.15
2023-05-23T06:25:04.921Z,11.07
2023-05-23T06:29:21.434Z,9.88
2023-05-23T06:31:27.168Z,10.43
2023-05-23T06:33:32.736Z,10.40
2023-05-23T06:35:38.221Z,11.02
2023-05-23T06:37:45.791Z,10.75
2023-05-23T06:40:05.750Z,9.35
2023-05-23T06:42:14.121Z,9.38
2023-05-23T06:44:41.468Z,9.15
2023-05-23T06:46:50.303Z,9.48
2023-05-23T06:49:10.622Z,8.70
2023-05-23T06:51:24.500Z,9.10
2023-05-23T06:53:30.289Z,9.20
2023-05-23T06:55:39.412Z,8.10
2023-05-23T06:57:47.749Z,8.27
2023-05-23T06:59:53.297Z,7.57
2023-05-23T07:01:59.365Z,8.15
2023-05-23T07:04:23.760Z,7.78
2023-05-23T07:06:33.076Z,7.38
2023-05-23T07:08:40.034Z,7.13
2023-05-23T07:10:48.360Z,5.22
2023-05-23T07:13:06.236Z,5.90
2023-05-23T07:15:15.224Z,6.45
2023-05-23T07:17:39.959Z,5.60
2023-05-23T07:19:45.995Z,5.55
2023-05-23T07:21:51.558Z,5.22
2023-05-23T07:23:58.141Z,4.10
2023-05-23T07:26:17.996Z,4.10
2023-05-23T07:28:30.401Z,4.30
2023-05-23T07:30:37.073Z,4.45
2023-05-23T07:32:45.398Z,4.55
2023-05-23T07:34:53.479Z,5.15
2023-05-23T07:37:07.124Z,4.22
2023-05-23T07:39:23.481Z,4.22
2023-05-23T07:41:33.218Z,4.10
2023-05-23T07:43:38.681Z,5.05
2023-05-23T07:45:47.235Z,5.18
2023-05-23T07:47:53.571Z,5.53
2023-05-23T07:49:59.566Z,4.72
2023-05-23T07:52:22.992Z,5.13
2023-05-23T07:54:50.044Z,4.93
2023-05-23T07:56:59.214Z,4.95
2023-05-23T07:59:05.435Z,4.85
2023-05-23T08:01:11.263Z,4.25
2023-05-23T08:03:38.535Z,5.05
2023-05-23T08:05:50.911Z,4.82
2023-05-23T08:07:56.607Z,3.97
2023-05-23T08:10:05.210Z,3.97
2023-05-23T08:12:13.489Z,4.10
2023-05-23T08:14:19.633Z,4.30
2023-05-23T08:16:49.417Z,3.80
2023-05-23T08:19:00.343Z,3.63
2023-05-23T08:21:07.126Z,3.50
2023-05-23T08:23:14.147Z,3.90
2023-05-23T08:25:44.713Z,3.58
2023-05-23T08:27:53.632Z,3.35
2023-05-23T08:30:25.627Z,3.00
2023-05-23T08:32:31.427Z,3.10
2023-05-23T08:34:37.301Z,2.70
2023-05-23T08:36:43.861Z,3.20
2023-05-23T08:38:55.036Z,3.08
2023-05-23T08:41:16.690Z,3.28
2023-05-23T08:43:25.096Z,2.80
2023-05-23T08:45:31.297Z,2.97
2023-05-23T08:47:40.820Z,3.08
2023-05-23T08:49:46.558Z,3.13
2023-05-23T08:52:03.779Z,3.13
2023-05-23T08:54:13.345Z,2.72
2023-05-23T08:56:33.308Z,3.03
2023-05-23T08:58:43.648Z,3.00
2023-05-23T09:00:50.355Z,3.05
2023-05-23T09:02:57.637Z,2.95
2023-05-23T09:05:22.877Z,3.27
2023-05-23T09:07:31.869Z,2.90
2023-05-23T09:09:39.011Z,2.55
2023-05-23T09:11:47.179Z,3.20
2023-05-23T09:13:56.324Z,3.05
2023-05-23T09:16:10.589Z,3.15
2023-05-23T09:18:25.093Z,3.00
2023-05-23T09:20:32.705Z,2.80
2023-05-23T09:22:43.799Z,3.03
2023-05-23T09:25:00.562Z,3.17
2023-05-23T09:27:20.414Z,2.80
2023-05-23T09:29:30.909Z,2.90
2023-05-23T09:31:36.876Z,2.95
2023-05-23T09:33:45.922Z,3.00
2023-05-23T09:36:02.726Z,2.95
2023-05-23T09:38:21.083Z,2.90
2023-05-23T09:40:35.557Z,3.10
2023-05-23T09:42:46.812Z,2.92
2023-05-23T09:44:54.785Z,2.78
2023-05-23T09:47:24.550Z,2.85
2023-05-23T09:49:30.535Z,2.65
2023-05-23T09:51:36.503Z,3.00
2023-05-23T09:53:42.278Z,3.30
2023-05-23T09:55:59.591Z,3.28
2023-05-23T09:58:06.644Z,3.28
2023-05-23T10:00:17.266Z,3.22
2023-05-23T10:02:49.140Z,3.58
2023-05-23T10:04:56.579Z,3.15
2023-05-23T10:07:17.284Z,3.83
2023-05-23T10:09:28.639Z,3.53
2023-05-23T10:12:28.031Z,3.00
2023-05-23T10:14:35.070Z,2.95
2023-05-23T10:16:55.348Z,2.95
2023-05-23T10:19:03.898Z,2.97
2023-05-23T10:21:15.789Z,3.30
2023-05-23T10:23:21.943Z,3.10
2023-05-23T10:25:27.577Z,2.92
2023-05-23T10:27:33.602Z,2.60
2023-05-23T10:29:40.684Z,2.75
2023-05-23T10:31:49.493Z,3.08
2023-05-23T10:34:04.852Z,2.97
2023-05-23T10:36:18.132Z,2.90
2023-05-23T10:38:44.168Z,2.58
2023-05-23T10:41:07.182Z,2.80
2023-05-23T10:43:25.595Z,2.67
2023-05-23T10:45:33.133Z,2.78
2023-05-23T10:47:41.729Z,2.35
2023-05-23T10:49:48.558Z,2.60
2023-05-23T10:51:54.723Z,2.88
2023-05-23T10:54:00.136Z,2.88
2023-05-23T10:56:13.436Z,2.50
2023-05-23T10:58:23.401Z,2.80
2023-05-23T11:00:29.514Z,2.38
2023-05-23T11:02:35.044Z,2.63
2023-05-23T11:04:45.316Z,2.42
2023-05-23T11:06:51.154Z,2.47
2023-05-23T11:09:07.882Z,2.55
2023-05-23T11:11:15.093Z,2.05
2023-05-23T11:13:20.590Z,2.40
2023-05-23T11:15:25.990Z,2.50
2023-05-23T11:17:44.700Z,2.03
2023-05-23T11:20:16.770Z,2.42
2023-05-23T11:22:39.856Z,2.08
2023-05-23T11:24:59.154Z,2.05
2023-05-23T11:27:09.064Z,2.25
2023-05-23T11:29:14.602Z,2.08
2023-05-23T11:31:21.403Z,2.15
2023-05-23T11:33:33.980Z,1.55
2023-05-23T11:35:43.298Z,1.65
2023-05-23T11:37:51.507Z,1.90
2023-05-23T11:39:59.965Z,1.70
2023-05-23T11:42:08.579Z,1.40
2023-05-23T11:44:15.701Z,1.60
2023-05-23T11:46:21.660Z,1.42
2023-05-23T11:48:37.544Z,1.33
2023-05-23T11:50:56.131Z,1.30
2023-05-23T11:53:03.089Z,1.20
2023-05-23T11:55:11.099Z,1.60
2023-05-23T11:57:41.576Z,1.48
2023-05-23T11:59:47.542Z,1.17
2023-05-23T12:01:53.111Z,1.20
2023-05-23T12:03:59.071Z,1.23
2023-05-23T12:06:23.668Z,1.20
2023-05-23T12:08:29.111Z,0.90
2023-05-23T12:10:34.492Z,1.10
2023-05-23T12:12:42.554Z,1.02
2023-05-23T12:14:48.153Z,0.98
2023-05-23T12:17:16.504Z,1.08
2023-05-23T12:19:22.481Z,0.90
2023-05-23T12:21:49.241Z,1.00
2023-05-23T12:23:56.327Z,1.10
2023-05-23T12:26:12.808Z,0.90
2023-05-23T12:28:18.243Z,1.10
2023-05-23T12:30:25.104Z,1.05
2023-05-23T12:32:30.627Z,1.23
2023-05-23T12:34:36.207Z,1.70
2023-05-23T12:36:49.314Z,1.23
2023-05-23T12:38:55.408Z,1.40
2023-05-23T12:41:24.973Z,1.33
2023-05-23T12:43:30.430Z,1.70
2023-05-23T12:45:38.492Z,1.60
2023-05-23T12:47:44.232Z,1.38
2023-05-23T12:49:50.047Z,1.40
2023-05-23T12:51:58.494Z,1.60
2023-05-23T12:54:04.696Z,1.60
2023-05-23T12:56:21.705Z,1.52
2023-05-23T12:58:29.662Z,1.88
2023-05-23T13:00:39.251Z,1.73
2023-05-23T13:02:45.500Z,1.58
2023-05-23T13:04:53.172Z,1.60
2023-05-23T13:07:09.777Z,1.67
2023-05-23T13:09:15.548Z,1.58
2023-05-23T13:11:22.612Z,1.85
2023-05-23T13:13:34.861Z,1.48
2023-05-23T13:15:41.043Z,1.83
2023-05-23T13:17:50.082Z,1.85
2023-05-23T13:19:56.640Z,1.80
2023-05-23T13:22:10.908Z,1.70
2023-05-23T13:24:17.097Z,2.00
2023-05-23T13:26:23.352Z,1.75
2023-05-23T13:28:37.990Z,2.08
2023-05-23T13:30:46.571Z,2.22
2023-05-23T13:32:52.661Z,2.55
2023-05-23T13:35:04.874Z,2.47
2023-05-23T13:37:24.034Z,2.58
2023-05-23T13:39:29.851Z,2.22
2023-05-23T13:41:35.254Z,2.60
2023-05-23T13:43:40.667Z,2.70
2023-05-23T13:46:02.212Z,2.65
2023-05-23T13:48:09.623Z,3.20
2023-05-23T13:50:15.822Z,2.75
2023-05-23T13:52:23.922Z,2.75
2023-05-23T13:54:29.424Z,2.97
2023-05-23T13:56:59.641Z,3.38
2023-05-23T13:59:05.536Z,3.40
2023-05-23T14:01:12.427Z,3.85
2023-05-23T14:03:19.532Z,3.30
2023-05-23T14:05:25.073Z,3.70
2023-05-23T14:07:34.826Z,3.17
2023-05-23T14:09:40.203Z,3.20
2023-05-23T14:11:58.855Z,3.35
2023-05-23T14:14:04.781Z,3.13
2023-05-23T14:16:21.209Z,3.08
2023-05-23T14:18:26.636Z,3.30
2023-05-23T14:20:34.682Z,3.40
2023-05-23T14:22:45.108Z,3.05
2023-05-23T14:24:51.773Z,3.70
2023-05-23T14:27:10.895Z,3.00
2023-05-23T14:29:17.038Z,3.47
2023-05-23T14:31:23.496Z,3.30
2023-05-23T14:33:29.304Z,3.70
2023-05-23T14:35:35.077Z,3.28
2023-05-23T14:37:43.118Z,2.90
2023-05-23T14:39:55.115Z,3.35
2023-05-23T14:42:02.398Z,3.97
2023-05-23T14:44:08.416Z,3.50
2023-05-23T14:46:24.091Z,3.42
2023-05-23T14:48:32.645Z,3.15
2023-05-23T14:50:38.377Z,3.35
2023-05-23T14:52:50.818Z,3.88
2023-05-23T14:54:58.509Z,2.97
2023-05-23T14:59:12.625Z,3.72
2023-05-23T15:01:18.465Z,3.70
2023-05-23T15:03:24.181Z,3.97
2023-05-23T15:05:30.219Z,3.55
2023-05-23T15:07:35.666Z,3.50
2023-05-23T15:09:55.722Z,3.47
2023-05-23T15:12:01.210Z,3.42
2023-05-23T15:14:06.632Z,3.38
2023-05-23T15:16:19.394Z,3.33
2023-05-23T15:18:39.858Z,4.10
2023-05-23T15:20:46.950Z,4.10
2023-05-23T15:22:52.628Z,4.03
2023-05-23T15:25:02.417Z,4.30
2023-05-23T15:27:24.683Z,3.92
2023-05-23T15:29:35.362Z,4.13
2023-05-23T15:31:41.323Z,4.10
2023-05-23T15:33:48.002Z,4.43
2023-05-23T15:36:08.826Z,3.53
2023-05-23T15:38:15.922Z,4.00
2023-05-23T15:40:27.745Z,3.70
2023-05-23T15:42:36.217Z,3.90
2023-05-23T15:44:41.677Z,3.35
2023-05-23T15:46:50.046Z,3.38
2023-05-23T15:49:07.179Z,3.55
2023-05-23T15:51:21.344Z,3.28
2023-05-23T15:53:26.804Z,3.20
2023-05-23T15:55:35.034Z,3.42
2023-05-23T15:57:42.076Z,3.58
2023-05-23T16:00:06.540Z,3.70
2023-05-23T16:02:50.072Z,3.10
2023-05-23T16:04:56.839Z,3.75
2023-05-23T16:07:02.765Z,3.30
2023-05-23T16:09:08.255Z,2.83
2023-05-23T16:11:16.553Z,3.33
2023-05-23T16:13:24.733Z,3.10
2023-05-23T16:15:32.751Z,2.70
2023-05-23T16:17:38.379Z,2.72
2023-05-23T16:19:46.405Z,2.50
2023-05-23T16:21:56.168Z,2.83
2023-05-23T16:24:04.221Z,2.90
2023-05-23T16:26:24.216Z,2.60
2023-05-23T16:28:31.226Z,2.92
2023-05-23T16:30:37.656Z,3.13
2023-05-23T16:32:44.090Z,3.13
2023-05-23T16:34:53.491Z,2.80
2023-05-23T16:37:13.954Z,3.78
2023-05-23T16:39:21.703Z,3.33
2023-05-23T16:41:30.104Z,3.53
2023-05-23T16:43:37.814Z,3.33
2023-05-23T16:45:48.705Z,3.10
2023-05-23T16:47:54.678Z,3.83
2023-05-23T16:50:01.237Z,4.15
2023-05-23T16:52:14.292Z,4.18
2023-05-23T16:54:19.913Z,3.90
2023-05-23T16:56:29.349Z,4.00
2023-05-23T16:58:42.130Z,4.20
2023-05-23T17:00:50.164Z,4.20
2023-05-23T17:02:55.937Z,3.38
2023-05-23T17:05:01.657Z,3.63
2023-05-23T17:07:10.783Z,3.50
2023-05-23T17:09:18.361Z,3.60
2023-05-23T17:11:23.985Z,3.78
2023-05-23T17:13:33.089Z,3.60
2023-05-23T17:15:38.698Z,3.22
2023-05-23T17:17:44.659Z,3.33
2023-05-23T17:19:52.607Z,3.05
2023-05-23T17:22:12.092Z,3.47
2023-05-23T17:24:17.976Z,3.38
2023-05-23T17:26:47.624Z,3.85
2023-05-23T17:28:56.170Z,3.40
2023-05-23T17:31:01.597Z,3.40
2023-05-23T17:33:07.198Z,3.85
2023-05-23T17:35:14.006Z,3.97
2023-05-23T17:37:29.005Z,3.33
2023-05-23T17:39:37.401Z,3.08
2023-05-23T17:41:42.789Z,3.03
2023-05-23T17:43:49.569Z,3.90
2023-05-23T17:48:46.425Z,3.00
2023-05-23T17:50:56.647Z,3.30
2023-05-23T17:53:04.702Z,3.45
2023-05-23T17:55:11.647Z,3.42
2023-05-23T17:57:31.524Z,3.80
2023-05-23T17:59:37.548Z,3.30
2023-05-23T18:01:47.091Z,3.58
2023-05-23T18:03:53.826Z,3.15
2023-05-23T18:06:27.641Z,3.40
2023-05-23T18:08:33.246Z,3.42
2023-05-23T18:10:40.732Z,3.45
2023-05-23T18:12:46.601Z,3.28
2023-05-23T18:14:52.364Z,3.38
2023-05-23T18:17:12.960Z,4.20
2023-05-23T18:19:18.584Z,3.53
2023-05-23T18:21:24.077Z,3.60
2023-05-23T18:23:29.514Z,3.42
2023-05-23T18:25:35.194Z,3.38
2023-05-23T18:27:58.834Z,3.55
2023-05-23T18:30:04.250Z,3.50
2023-05-23T18:32:14.715Z,3.92
2023-05-23T18:34:20.154Z,3.50
2023-05-23T18:36:25.668Z,3.40
2023-05-23T18:38:31.162Z,3.53
2023-05-23T18:40:55.219Z,3.47
2023-05-23T18:43:04.907Z,3.88
2023-05-23T18:45:11.907Z,3.58
2023-05-23T18:47:24.033Z,4.80
2023-05-23T18:49:32.142Z,3.22
2023-05-23T18:53:43.330Z,3.72
2023-05-23T18:56:12.266Z,3.47
2023-05-23T18:58:17.694Z,3.00
2023-05-23T19:00:24.388Z,3.70
2023-05-23T19:02:32.702Z,3.97
2023-05-23T19:04:41.490Z,3.83
2023-05-23T19:06:57.377Z,3.78
2023-05-23T19:09:02.780Z,3.60
2023-05-23T19:11:10.821Z,3.30
2023-05-23T19:13:19.331Z,3.40
2023-05-23T19:15:26.399Z,3.60
2023-05-23T19:17:48.489Z,3.08
2023-05-23T19:19:53.917Z,4.28
2023-05-23T19:22:01.739Z,3.30
2023-05-23T19:24:09.878Z,3.50
2023-05-23T19:26:16.859Z,4.13
2023-05-23T19:28:24.807Z,3.47
2023-05-23T19:30:39.036Z,3.58
2023-05-23T19:33:00.272Z,3.42
2023-05-23T19:35:09.156Z,3.58
2023-05-23T19:37:17.677Z,4.22
2023-05-23T19:39:23.074Z,4.10
2023-05-23T19:41:28.502Z,3.72
2023-05-23T19:43:33.975Z,3.83
2023-05-23T19:45:40.100Z,3.75
2023-05-23T19:48:00.052Z,4.68
2023-05-23T19:50:06.059Z,3.40
2023-05-23T19:52:11.476Z,4.90
2023-05-23T19:54:16.916Z,4.57
2023-05-23T19:56:27.752Z,4.40
2023-05-23T19:58:35.439Z,4.15
2023-05-23T20:00:41.155Z,4.20
2023-05-23T20:02:51.566Z,4.82
2023-05-23T20:04:57.222Z,3.53
2023-05-23T20:07:08.717Z,3.67
2023-05-23T20:09:15.026Z,4.13
2023-05-23T20:11:20.444Z,4.35
2023-05-23T20:13:25.966Z,3.55
2023-05-23T20:17:44.177Z,4.45
2023-05-23T20:19:53.584Z,4.15
2023-05-23T20:22:05.628Z,3.53
2023-05-23T20:24:12.148Z,3.90
2023-05-23T20:26:28.798Z,3.83
2023-05-23T20:28:34.504Z,3.70
2023-05-23T20:30:40.064Z,3.88
2023-05-23T20:32:46.201Z,4.15
2023-05-23T20:34:57.392Z,3.90
2023-05-23T20:37:13.885Z,3.70
2023-05-23T20:39:21.820Z,3.35
2023-05-23T20:41:29.649Z,3.90
2023-05-23T20:43:37.602Z,4.28
2023-05-23T20:45:43.627Z,3.70
2023-05-23T20:47:53.752Z,3.90
2023-05-23T20:50:01.873Z,3.65
2023-05-23T20:52:10.424Z,3.65
2023-05-23T20:54:17.478Z,4.35
2023-05-23T20:56:24.687Z,3.78
2023-05-23T20:58:35.155Z,3.78
2023-05-23T21:00:40.740Z,3.67
2023-05-23T21:02:46.776Z,3.97
2023-05-23T21:04:53.622Z,4.90
2023-05-23T21:07:07.902Z,4.00
2023-05-23T21:09:14.055Z,3.63
2023-05-23T21:11:19.810Z,4.38
2023-05-23T21:13:27.118Z,3.58
2023-05-23T21:15:33.886Z,3.88
2023-05-23T21:17:39.392Z,3.90
2023-05-23T21:19:51.174Z,4.07
2023-05-23T21:21:56.600Z,3.78
2023-05-23T21:24:05.046Z,3.97
2023-05-23T21:26:20.612Z,3.35
2023-05-23T21:28:25.985Z,3.65
2023-05-23T21:30:32.619Z,4.07
2023-05-23T21:32:39.263Z,3.30
2023-05-23T21:34:46.087Z,4.60
2023-05-23T21:37:05.093Z,3.63
2023-05-23T21:39:39.303Z,3.97
2023-05-23T21:41:55.194Z,3.85
2023-05-23T21:44:02.964Z,3.78
2023-05-23T21:46:12.536Z,4.07
2023-05-23T21:48:18.087Z,3.40
2023-05-23T21:50:41.147Z,4.05
2023-05-23T21:52:48.284Z,3.40
2023-05-23T21:54:56.609Z,3.78
2023-05-23T21:57:18.167Z,3.63
2023-05-23T21:59:24.393Z,4.05
2023-05-23T22:01:30.994Z,3.05
2023-05-23T22:03:36.556Z,4.10
2023-05-23T22:05:42.084Z,3.60
2023-05-23T22:07:47.565Z,3.95
2023-05-23T22:09:59.023Z,3.63
2023-05-23T22:12:19.989Z,4.35
2023-05-23T22:14:25.543Z,3.75
2023-05-23T22:16:33.238Z,3.70
2023-05-23T22:20:58.051Z,5.63
2023-05-23T22:23:03.608Z,5.70
2023-05-23T22:25:12.486Z,5.85
2023-05-23T22:27:20.747Z,4.90
2023-05-23T22:29:26.494Z,5.00
2023-05-23T22:31:38.395Z,5.60
2023-05-23T22:33:46.379Z,5.07
2023-05-23T22:35:59.553Z,4.60
2023-05-23T22:38:05.190Z,4.63
2023-05-23T22:40:25.124Z,5.15
2023-05-23T22:42:30.787Z,4.20
2023-05-23T22:44:36.243Z,4.78
2023-05-23T22:46:44.009Z,4.47
2023-05-23T22:50:57.432Z,4.70
2023-05-23T22:53:03.761Z,4.45
2023-05-23T22:55:28.797Z,5.18
2023-05-23T22:57:34.416Z,5.25
2023-05-23T22:59:43.243Z,5.50
2023-05-23T23:01:48.855Z,4.82
2023-05-23T23:03:54.862Z,4.93
2023-05-23T23:06:06.855Z,5.10
2023-05-23T23:08:12.525Z,5.30
2023-05-23T23:10:20.793Z,4.45
2023-05-23T23:12:26.465Z,5.38
2023-05-23T23:14:32.386Z,5.35
2023-05-23T23:16:38.243Z,4.88
2023-05-23T23:18:57.029Z,5.07
2023-05-23T23:21:06.018Z,4.88
2023-05-23T23:23:11.733Z,4.40
2023-05-23T23:25:20.001Z,4.70
2023-05-23T23:27:32.479Z,5.00
2023-05-23T23:29:37.869Z,5.00
2023-05-23T23:31:43.267Z,4.30
2023-05-23T23:33:49.382Z,4.97
2023-05-23T23:35:59.624Z,5.00
2023-05-23T23:38:05.110Z,5.25
2023-05-23T23:40:11.790Z,5.55
2023-05-23T23:42:20.832Z,4.67
2023-05-23T23:44:26.328Z,4.70
2023-05-23T23:46:31.894Z,4.88
2023-05-23T23:48:37.758Z,4.75
2023-05-23T23:50:43.615Z,5.75
2023-05-23T23:52:52.786Z,4.80
2023-05-23T23:54:58.133Z,4.88
2023-05-23T23:57:20.142Z,4.53
2023-05-23T23:59:27.586Z,5.45
